Power, MT (59468)

10:34 PM MDT on May 22, 2017 (GMT -0600)
Johnson Farm | | Change Station
Active Advisory: High Wind Watch

Elev 3709 ft 47.65 °N, 111.71 °W | Updated 30 seconds ago

Clear
Clear
57.6 °F
Feels Like 57.6 °F
N
6.8
Wind Variable Wind from ESE

Today
High -- | Low -- °F
--% Chance of Precip.
Yesterday
High -- | Low -- °F
Precip. -- in
Pressure 30.17 in
Visibility 10.0 miles
Clouds Clear
Dew Point 36 °F
Humidity 45%
Rainfall 0.00 in
Snow Depth Not available.
5:40 AM 9:06 PM
Waning Crescent, 10% visible
METAR KGTF 230353Z 07003KT 10SM CLR 14/03 A3019 RMK AO2 SLP214 T01440033
Pressure 30.17 in
Visibility 10.0 miles
Clouds Clear
Dew Point 36 °F
Humidity 45%
Rainfall 0.00 in
Snow Depth Not available.
5:40 AM 9:06 PM
Waning Crescent, 10% visible
METAR KGTF 230353Z 07003KT 10SM CLR 14/03 A3019 RMK AO2 SLP214 T01440033

Get Your Daily Forecast Email!

Thanks for signing up!

Be on the lookout for a verification email in your inbox.

You'll start receiving severe weather alerts in your inbox..

×

10-Day Weather Forecast

Almanac

Astronomy

May. 22, 2017 Rise Set
Actual Time
Civil Twilight
Nautical Twilight
Astronomical Twilight
Moon
Length of Visible Light
Length of Day
Tomorrow will be .
, % of the Moon is Illuminated

Today's Extremes

State Highs State Lows

Community

WunderPhotos

Category 6

Welcome to Category 6. This is the collective home for Weather Underground's featured writeups by Dr. Jeff Masters (right), Bob Henson (left), Chris Burt, and other regular contributors.

Nearby

Air Quality

  Air Quality AQ Index Pollutant
Not available.

Snow Depth

Station Depth Elevation

Earthquake Activity

City Distance Mag. Time & Date
Minimum magnitude displayed is 2.5.

Coastal Water Temperatures

Place Temperature

Stations

Nearby Weather Stations

Station Location Temp. Windchill Dew Point Humidity Wind Precip. Elev Updated Type
                   

Watches & Warnings

High Wind Watch
Issued: 10:05 PM MDT May. 22, 2017 – National Weather Service

... High wind watch remains in effect from late Tuesday night
through late Wednesday night...

* winds: southwest winds becoming westerly at 30 to 40 mph, with
gusts up to 60 mph possible. Wind gusts along the Rocky
Mountain front possibly may reach 75 mph.

* Timing: late Tuesday night through Wednesday afternoon.

* Impacts: possible damaging winds may blow down trees and power
lines. Power outages may be possible. Travel could become
difficult, especially for high profile vehicles traveling on
north to south orientated roads.

Precautionary/preparedness actions...

A high wind watch means there is the potential for a hazardous
high wind event. Sustained winds of at least 40 mph, or gusts of
58 mph or stronger, may occur. Continue to monitor the latest
forecasts.


Moldan